sensor_id;sensor_type;location;lat;lon;timestamp;temperature;humidity
78463;SHT31;67756;51.982;5.648;2023-08-12T00:00:06;24.2;69.2
78463;SHT31;67756;51.982;5.648;2023-08-12T00:02:37;24.2;69.1
78463;SHT31;67756;51.982;5.648;2023-08-12T00:05:07;24.2;69.4
78463;SHT31;67756;51.982;5.648;2023-08-12T00:07:38;24.2;69.6
78463;SHT31;67756;51.982;5.648;2023-08-12T00:10:09;24.2;69.3
78463;SHT31;67756;51.982;5.648;2023-08-12T00:12:38;24.2;69.3
78463;SHT31;67756;51.982;5.648;2023-08-12T00:15:08;24.2;69.2
78463;SHT31;67756;51.982;5.648;2023-08-12T00:17:37;24.1;69.4
78463;SHT31;67756;51.982;5.648;2023-08-12T00:20:08;24.1;69.5
78463;SHT31;67756;51.982;5.648;2023-08-12T00:22:38;24.1;69.8
78463;SHT31;67756;51.982;5.648;2023-08-12T00:25:09;24.2;69.4
78463;SHT31;67756;51.982;5.648;2023-08-12T00:27:37;24.2;69.1
78463;SHT31;67756;51.982;5.648;2023-08-12T00:30:08;24.3;69.1
78463;SHT31;67756;51.982;5.648;2023-08-12T00:32:40;24.4;68.8
78463;SHT31;67756;51.982;5.648;2023-08-12T00:35:13;24.4;68.1
78463;SHT31;67756;51.982;5.648;2023-08-12T00:37:41;24.5;67.8
78463;SHT31;67756;51.982;5.648;2023-08-12T00:40:12;24.5;67.8
78463;SHT31;67756;51.982;5.648;2023-08-12T00:42:41;24.5;67.5
78463;SHT31;67756;51.982;5.648;2023-08-12T00:45:10;24.5;67.4
78463;SHT31;67756;51.982;5.648;2023-08-12T00:47:40;24.5;67.6
78463;SHT31;67756;51.982;5.648;2023-08-12T00:50:13;24.5;67.6
78463;SHT31;67756;51.982;5.648;2023-08-12T00:52:43;24.5;67.4
78463;SHT31;67756;51.982;5.648;2023-08-12T00:55:12;24.4;67.6
78463;SHT31;67756;51.982;5.648;2023-08-12T00:57:40;24.4;67.7
78463;SHT31;67756;51.982;5.648;2023-08-12T01:00:12;24.4;68.1
78463;SHT31;67756;51.982;5.648;2023-08-12T01:02:44;24.3;68.2
78463;SHT31;67756;51.982;5.648;2023-08-12T01:05:15;24.3;68.4
78463;SHT31;67756;51.982;5.648;2023-08-12T01:07:44;24.3;68.4
78463;SHT31;67756;51.982;5.648;2023-08-12T01:10:14;24.3;68.3
78463;SHT31;67756;51.982;5.648;2023-08-12T01:12:49;24.2;68.5
78463;SHT31;67756;51.982;5.648;2023-08-12T01:15:21;24.2;68.7
78463;SHT31;67756;51.982;5.648;2023-08-12T01:17:54;24.2;68.6
78463;SHT31;67756;51.982;5.648;2023-08-12T01:20:27;24.3;68.6
78463;SHT31;67756;51.982;5.648;2023-08-12T01:23:10;24.2;68.4
78463;SHT31;67756;51.982;5.648;2023-08-12T01:25:39;24.2;68.3
78463;SHT31;67756;51.982;5.648;2023-08-12T01:28:10;24.2;68.3
78463;SHT31;67756;51.982;5.648;2023-08-12T01:30:46;24.2;68.7
78463;SHT31;67756;51.982;5.648;2023-08-12T01:33:24;24.2;68.7
78463;SHT31;67756;51.982;5.648;2023-08-12T01:36:03;24.2;68.7
78463;SHT31;67756;51.982;5.648;2023-08-12T01:38:35;24.2;68.8
78463;SHT31;67756;51.982;5.648;2023-08-12T01:41:07;24.2;68.8
78463;SHT31;67756;51.982;5.648;2023-08-12T01:43:38;24.2;69.0
78463;SHT31;67756;51.982;5.648;2023-08-12T01:46:07;24.1;69.0
78463;SHT31;67756;51.982;5.648;2023-08-12T01:48:36;24.1;69.2
78463;SHT31;67756;51.982;5.648;2023-08-12T01:51:05;24.1;69.1
78463;SHT31;67756;51.982;5.648;2023-08-12T01:53:34;24.1;69.3
78463;SHT31;67756;51.982;5.648;2023-08-12T01:56:02;24.0;69.6
78463;SHT31;67756;51.982;5.648;2023-08-12T01:58:31;24.0;69.8
78463;SHT31;67756;51.982;5.648;2023-08-12T02:01:00;23.9;70.3
78463;SHT31;67756;51.982;5.648;2023-08-12T02:03:28;23.9;70.5
78463;SHT31;67756;51.982;5.648;2023-08-12T02:05:57;23.8;70.7
78463;SHT31;67756;51.982;5.648;2023-08-12T02:08:25;23.8;70.9
78463;SHT31;67756;51.982;5.648;2023-08-12T02:10:54;23.8;70.9
78463;SHT31;67756;51.982;5.648;2023-08-12T02:13:22;23.7;71.1
78463;SHT31;67756;51.982;5.648;2023-08-12T02:15:51;23.7;71.3
78463;SHT31;67756;51.982;5.648;2023-08-12T02:18:19;23.7;71.5
78463;SHT31;67756;51.982;5.648;2023-08-12T02:20:48;23.6;71.7
78463;SHT31;67756;51.982;5.648;2023-08-12T02:23:17;23.6;72.0
78463;SHT31;67756;51.982;5.648;2023-08-12T02:25:46;23.6;72.0
78463;SHT31;67756;51.982;5.648;2023-08-12T02:28:17;23.5;72.3
78463;SHT31;67756;51.982;5.648;2023-08-12T02:30:45;23.5;72.7
78463;SHT31;67756;51.982;5.648;2023-08-12T02:33:14;23.5;72.7
78463;SHT31;67756;51.982;5.648;2023-08-12T02:35:42;23.5;72.6
78463;SHT31;67756;51.982;5.648;2023-08-12T02:38:11;23.5;72.7
78463;SHT31;67756;51.982;5.648;2023-08-12T02:40:39;23.5;72.8
78463;SHT31;67756;51.982;5.648;2023-08-12T02:43:08;23.5;73.0
78463;SHT31;67756;51.982;5.648;2023-08-12T02:45:38;23.4;73.1
78463;SHT31;67756;51.982;5.648;2023-08-12T02:48:07;23.4;73.3
78463;SHT31;67756;51.982;5.648;2023-08-12T02:50:36;23.4;73.4
78463;SHT31;67756;51.982;5.648;2023-08-12T02:53:06;23.3;73.8
78463;SHT31;67756;51.982;5.648;2023-08-12T02:55:34;23.3;74.1
78463;SHT31;67756;51.982;5.648;2023-08-12T02:58:04;23.3;73.9
78463;SHT31;67756;51.982;5.648;2023-08-12T03:00:32;23.3;74.1
78463;SHT31;67756;51.982;5.648;2023-08-12T03:03:01;23.3;74.2
78463;SHT31;67756;51.982;5.648;2023-08-12T03:05:32;23.3;74.2
78463;SHT31;67756;51.982;5.648;2023-08-12T03:08:01;23.3;74.4
78463;SHT31;67756;51.982;5.648;2023-08-12T03:10:31;23.3;74.4
78463;SHT31;67756;51.982;5.648;2023-08-12T03:13:03;23.3;74.7
78463;SHT31;67756;51.982;5.648;2023-08-12T03:15:32;23.3;74.7
78463;SHT31;67756;51.982;5.648;2023-08-12T03:18:04;23.4;74.3
78463;SHT31;67756;51.982;5.648;2023-08-12T03:20:33;23.4;73.9
78463;SHT31;67756;51.982;5.648;2023-08-12T03:23:01;23.5;73.8
78463;SHT31;67756;51.982;5.648;2023-08-12T03:25:30;23.5;73.7
78463;SHT31;67756;51.982;5.648;2023-08-12T03:27:58;23.5;73.6
78463;SHT31;67756;51.982;5.648;2023-08-12T03:30:27;23.5;73.6
78463;SHT31;67756;51.982;5.648;2023-08-12T03:32:56;23.5;73.5
78463;SHT31;67756;51.982;5.648;2023-08-12T03:35:24;23.5;73.6
78463;SHT31;67756;51.982;5.648;2023-08-12T03:37:53;23.4;73.8
78463;SHT31;67756;51.982;5.648;2023-08-12T03:40:21;23.4;73.8
78463;SHT31;67756;51.982;5.648;2023-08-12T03:42:50;23.4;73.9
78463;SHT31;67756;51.982;5.648;2023-08-12T03:45:18;23.4;74.1
78463;SHT31;67756;51.982;5.648;2023-08-12T03:47:47;23.4;74.0
78463;SHT31;67756;51.982;5.648;2023-08-12T03:50:15;23.4;74.0
78463;SHT31;67756;51.982;5.648;2023-08-12T03:52:44;23.4;74.1
78463;SHT31;67756;51.982;5.648;2023-08-12T03:55:15;23.4;74.4
78463;SHT31;67756;51.982;5.648;2023-08-12T03:57:44;23.4;73.9
78463;SHT31;67756;51.982;5.648;2023-08-12T04:00:12;23.4;73.9
78463;SHT31;67756;51.982;5.648;2023-08-12T04:02:41;23.4;73.9
78463;SHT31;67756;51.982;5.648;2023-08-12T04:05:10;23.4;73.8
78463;SHT31;67756;51.982;5.648;2023-08-12T04:07:39;23.4;73.8
78463;SHT31;67756;51.982;5.648;2023-08-12T04:10:12;23.5;73.9
78463;SHT31;67756;51.982;5.648;2023-08-12T04:12:42;23.5;73.7
78463;SHT31;67756;51.982;5.648;2023-08-12T04:15:12;23.5;73.5
78463;SHT31;67756;51.982;5.648;2023-08-12T04:17:40;23.6;73.5
78463;SHT31;67756;51.982;5.648;2023-08-12T04:20:09;23.6;73.4
78463;SHT31;67756;51.982;5.648;2023-08-12T04:22:38;23.6;73.5
78463;SHT31;67756;51.982;5.648;2023-08-12T04:25:08;23.6;73.6
78463;SHT31;67756;51.982;5.648;2023-08-12T04:27:37;23.6;73.6
78463;SHT31;67756;51.982;5.648;2023-08-12T04:30:06;23.6;73.3
78463;SHT31;67756;51.982;5.648;2023-08-12T04:32:35;23.6;73.3
78463;SHT31;67756;51.982;5.648;2023-08-12T04:35:04;23.5;73.5
78463;SHT31;67756;51.982;5.648;2023-08-12T04:37:32;23.5;73.7
78463;SHT31;67756;51.982;5.648;2023-08-12T04:40:01;23.5;73.9
78463;SHT31;67756;51.982;5.648;2023-08-12T04:42:30;23.5;73.8
78463;SHT31;67756;51.982;5.648;2023-08-12T04:44:59;23.6;73.5
78463;SHT31;67756;51.982;5.648;2023-08-12T04:47:29;23.6;73.5
78463;SHT31;67756;51.982;5.648;2023-08-12T04:49:58;23.5;73.6
78463;SHT31;67756;51.982;5.648;2023-08-12T04:52:27;23.5;73.6
78463;SHT31;67756;51.982;5.648;2023-08-12T04:54:55;23.5;73.7
78463;SHT31;67756;51.982;5.648;2023-08-12T04:57:25;23.5;73.8
78463;SHT31;67756;51.982;5.648;2023-08-12T04:59:54;23.5;73.8
78463;SHT31;67756;51.982;5.648;2023-08-12T05:02:23;23.4;74.0
78463;SHT31;67756;51.982;5.648;2023-08-12T05:04:52;23.4;74.1
78463;SHT31;67756;51.982;5.648;2023-08-12T05:07:20;23.4;74.1
78463;SHT31;67756;51.982;5.648;2023-08-12T05:09:49;23.4;74.2
78463;SHT31;67756;51.982;5.648;2023-08-12T05:12:17;23.3;74.3
78463;SHT31;67756;51.982;5.648;2023-08-12T05:14:47;23.3;74.5
78463;SHT31;67756;51.982;5.648;2023-08-12T05:17:16;23.3;74.4
78463;SHT31;67756;51.982;5.648;2023-08-12T05:19:45;23.3;74.7
78463;SHT31;67756;51.982;5.648;2023-08-12T05:22:15;23.3;74.6
78463;SHT31;67756;51.982;5.648;2023-08-12T05:24:44;23.3;74.5
78463;SHT31;67756;51.982;5.648;2023-08-12T05:27:12;23.3;74.5
78463;SHT31;67756;51.982;5.648;2023-08-12T05:29:41;23.2;74.7
78463;SHT31;67756;51.982;5.648;2023-08-12T05:32:10;23.2;75.6
78463;SHT31;67756;51.982;5.648;2023-08-12T05:34:38;23.1;75.6
78463;SHT31;67756;51.982;5.648;2023-08-12T05:37:07;23.0;76.7
78463;SHT31;67756;51.982;5.648;2023-08-12T05:39:35;22.9;77.0
78463;SHT31;67756;51.982;5.648;2023-08-12T05:42:04;22.8;77.5
78463;SHT31;67756;51.982;5.648;2023-08-12T05:44:33;22.6;78.1
78463;SHT31;67756;51.982;5.648;2023-08-12T05:47:01;22.5;78.7
78463;SHT31;67756;51.982;5.648;2023-08-12T05:49:30;22.4;79.1
78463;SHT31;67756;51.982;5.648;2023-08-12T05:52:00;22.3;80.3
78463;SHT31;67756;51.982;5.648;2023-08-12T05:54:29;22.2;80.6
78463;SHT31;67756;51.982;5.648;2023-08-12T05:56:58;22.1;80.8
78463;SHT31;67756;51.982;5.648;2023-08-12T05:59:27;22.1;81.0
78463;SHT31;67756;51.982;5.648;2023-08-12T06:01:58;22.1;81.6
78463;SHT31;67756;51.982;5.648;2023-08-12T06:04:26;22.1;81.7
78463;SHT31;67756;51.982;5.648;2023-08-12T06:06:55;22.1;81.3
78463;SHT31;67756;51.982;5.648;2023-08-12T06:09:23;22.1;80.8
78463;SHT31;67756;51.982;5.648;2023-08-12T06:11:52;22.0;80.5
78463;SHT31;67756;51.982;5.648;2023-08-12T06:14:20;22.0;81.0
78463;SHT31;67756;51.982;5.648;2023-08-12T06:16:49;21.9;81.4
78463;SHT31;67756;51.982;5.648;2023-08-12T06:19:17;21.9;81.1
78463;SHT31;67756;51.982;5.648;2023-08-12T06:21:46;21.8;81.7
78463;SHT31;67756;51.982;5.648;2023-08-12T06:24:14;21.8;82.1
78463;SHT31;67756;51.982;5.648;2023-08-12T06:26:43;21.8;82.2
78463;SHT31;67756;51.982;5.648;2023-08-12T06:29:11;21.8;81.7
78463;SHT31;67756;51.982;5.648;2023-08-12T06:31:40;21.7;82.0
78463;SHT31;67756;51.982;5.648;2023-08-12T06:34:08;21.7;81.5
78463;SHT31;67756;51.982;5.648;2023-08-12T06:36:37;21.7;81.6
78463;SHT31;67756;51.982;5.648;2023-08-12T06:39:06;21.7;81.5
78463;SHT31;67756;51.982;5.648;2023-08-12T06:41:34;21.6;82.6
78463;SHT31;67756;51.982;5.648;2023-08-12T06:44:03;21.6;82.3
78463;SHT31;67756;51.982;5.648;2023-08-12T06:46:31;21.6;82.4
78463;SHT31;67756;51.982;5.648;2023-08-12T06:49:00;21.6;82.6
78463;SHT31;67756;51.982;5.648;2023-08-12T06:51:29;21.6;83.2
78463;SHT31;67756;51.982;5.648;2023-08-12T06:53:57;21.6;83.8
78463;SHT31;67756;51.982;5.648;2023-08-12T06:56:26;21.6;83.9
78463;SHT31;67756;51.982;5.648;2023-08-12T06:58:54;21.5;83.4
78463;SHT31;67756;51.982;5.648;2023-08-12T07:01:23;21.5;83.5
78463;SHT31;67756;51.982;5.648;2023-08-12T07:03:51;21.5;83.5
78463;SHT31;67756;51.982;5.648;2023-08-12T07:06:20;21.5;84.0
78463;SHT31;67756;51.982;5.648;2023-08-12T07:08:48;21.5;83.8
78463;SHT31;67756;51.982;5.648;2023-08-12T07:11:17;21.4;84.2
78463;SHT31;67756;51.982;5.648;2023-08-12T07:13:45;21.5;84.3
78463;SHT31;67756;51.982;5.648;2023-08-12T07:16:14;21.5;84.7
78463;SHT31;67756;51.982;5.648;2023-08-12T07:18:43;21.5;85.0
78463;SHT31;67756;51.982;5.648;2023-08-12T07:21:13;21.6;84.5
78463;SHT31;67756;51.982;5.648;2023-08-12T07:23:42;21.6;83.4
78463;SHT31;67756;51.982;5.648;2023-08-12T07:26:11;21.7;83.3
78463;SHT31;67756;51.982;5.648;2023-08-12T07:28:39;21.7;83.0
78463;SHT31;67756;51.982;5.648;2023-08-12T07:31:08;21.7;83.1
78463;SHT31;67756;51.982;5.648;2023-08-12T07:33:39;21.7;83.3
78463;SHT31;67756;51.982;5.648;2023-08-12T07:36:09;21.7;83.2
78463;SHT31;67756;51.982;5.648;2023-08-12T07:38:38;21.7;82.9
78463;SHT31;67756;51.982;5.648;2023-08-12T07:41:07;21.7;83.1
78463;SHT31;67756;51.982;5.648;2023-08-12T07:43:37;21.6;83.3
78463;SHT31;67756;51.982;5.648;2023-08-12T07:46:06;21.6;83.4
78463;SHT31;67756;51.982;5.648;2023-08-12T07:48:35;21.5;83.6
78463;SHT31;67756;51.982;5.648;2023-08-12T07:51:04;21.5;84.3
78463;SHT31;67756;51.982;5.648;2023-08-12T07:53:33;21.5;84.8
78463;SHT31;67756;51.982;5.648;2023-08-12T07:56:01;21.5;84.9
78463;SHT31;67756;51.982;5.648;2023-08-12T07:58:30;21.5;85.2
78463;SHT31;67756;51.982;5.648;2023-08-12T08:00:58;21.5;85.0
78463;SHT31;67756;51.982;5.648;2023-08-12T08:03:29;21.5;85.1
78463;SHT31;67756;51.982;5.648;2023-08-12T08:05:59;21.5;85.2
78463;SHT31;67756;51.982;5.648;2023-08-12T08:08:27;21.5;85.5
78463;SHT31;67756;51.982;5.648;2023-08-12T08:10:56;21.5;85.1
78463;SHT31;67756;51.982;5.648;2023-08-12T08:13:24;21.5;85.0
78463;SHT31;67756;51.982;5.648;2023-08-12T08:15:53;21.6;84.9
78463;SHT31;67756;51.982;5.648;2023-08-12T08:18:22;21.6;84.8
78463;SHT31;67756;51.982;5.648;2023-08-12T08:20:51;21.6;84.9
78463;SHT31;67756;51.982;5.648;2023-08-12T08:23:22;21.6;84.9
78463;SHT31;67756;51.982;5.648;2023-08-12T08:25:50;21.7;84.6
78463;SHT31;67756;51.982;5.648;2023-08-12T08:28:19;21.7;84.4
78463;SHT31;67756;51.982;5.648;2023-08-12T08:30:47;21.8;84.5
78463;SHT31;67756;51.982;5.648;2023-08-12T08:33:18;21.8;84.8
78463;SHT31;67756;51.982;5.648;2023-08-12T08:35:46;21.9;84.4
78463;SHT31;67756;51.982;5.648;2023-08-12T08:38:15;21.9;83.9
78463;SHT31;67756;51.982;5.648;2023-08-12T08:40:44;22.0;83.6
78463;SHT31;67756;51.982;5.648;2023-08-12T08:43:15;22.0;83.4
78463;SHT31;67756;51.982;5.648;2023-08-12T08:45:49;22.0;83.5
78463;SHT31;67756;51.982;5.648;2023-08-12T08:48:20;22.1;83.0
78463;SHT31;67756;51.982;5.648;2023-08-12T08:50:50;22.2;82.4
78463;SHT31;67756;51.982;5.648;2023-08-12T08:53:20;22.2;82.6
78463;SHT31;67756;51.982;5.648;2023-08-12T08:55:49;22.3;82.7
78463;SHT31;67756;51.982;5.648;2023-08-12T08:58:18;22.3;82.4
78463;SHT31;67756;51.982;5.648;2023-08-12T09:00:49;22.3;82.2
78463;SHT31;67756;51.982;5.648;2023-08-12T09:03:19;22.3;82.4
78463;SHT31;67756;51.982;5.648;2023-08-12T09:05:49;22.2;81.8
78463;SHT31;67756;51.982;5.648;2023-08-12T09:08:21;22.2;82.0
78463;SHT31;67756;51.982;5.648;2023-08-12T09:10:51;22.2;82.7
78463;SHT31;67756;51.982;5.648;2023-08-12T09:13:20;22.2;83.5
78463;SHT31;67756;51.982;5.648;2023-08-12T09:15:50;22.1;83.1
78463;SHT31;67756;51.982;5.648;2023-08-12T09:18:18;22.1;83.4
78463;SHT31;67756;51.982;5.648;2023-08-12T09:20:50;22.1;83.7
78463;SHT31;67756;51.982;5.648;2023-08-12T09:23:19;22.1;82.8
78463;SHT31;67756;51.982;5.648;2023-08-12T09:25:47;22.0;83.1
78463;SHT31;67756;51.982;5.648;2023-08-12T09:28:16;22.0;83.8
78463;SHT31;67756;51.982;5.648;2023-08-12T09:30:51;22.0;84.0
78463;SHT31;67756;51.982;5.648;2023-08-12T09:33:25;22.1;84.4
78463;SHT31;67756;51.982;5.648;2023-08-12T09:35:55;22.2;84.2
78463;SHT31;67756;51.982;5.648;2023-08-12T09:38:25;22.2;84.1
78463;SHT31;67756;51.982;5.648;2023-08-12T09:40:55;22.3;83.4
78463;SHT31;67756;51.982;5.648;2023-08-12T09:43:28;22.3;81.4
78463;SHT31;67756;51.982;5.648;2023-08-12T09:45:58;22.3;81.0
78463;SHT31;67756;51.982;5.648;2023-08-12T09:48:27;22.4;80.8
78463;SHT31;67756;51.982;5.648;2023-08-12T09:50:58;22.4;81.7
78463;SHT31;67756;51.982;5.648;2023-08-12T09:53:27;22.4;82.5
78463;SHT31;67756;51.982;5.648;2023-08-12T09:55:59;22.4;82.6
78463;SHT31;67756;51.982;5.648;2023-08-12T09:58:30;22.5;82.7
78463;SHT31;67756;51.982;5.648;2023-08-12T10:01:02;22.6;82.3
78463;SHT31;67756;51.982;5.648;2023-08-12T10:03:33;22.7;80.8
78463;SHT31;67756;51.982;5.648;2023-08-12T10:06:02;22.8;80.3
78463;SHT31;67756;51.982;5.648;2023-08-12T10:08:31;22.8;78.3
78463;SHT31;67756;51.982;5.648;2023-08-12T10:11:01;22.9;75.6
78463;SHT31;67756;51.982;5.648;2023-08-12T10:13:31;22.9;75.9
78463;SHT31;67756;51.982;5.648;2023-08-12T10:16:00;22.9;73.6
78463;SHT31;67756;51.982;5.648;2023-08-12T10:18:30;22.9;72.9
78463;SHT31;67756;51.982;5.648;2023-08-12T10:21:00;22.9;72.8
78463;SHT31;67756;51.982;5.648;2023-08-12T10:23:30;22.8;72.9
78463;SHT31;67756;51.982;5.648;2023-08-12T10:26:00;22.8;73.1
78463;SHT31;67756;51.982;5.648;2023-08-12T10:28:31;22.7;73.3
78463;SHT31;67756;51.982;5.648;2023-08-12T10:31:03;22.7;73.4
78463;SHT31;67756;51.982;5.648;2023-08-12T10:33:36;22.7;75.4
78463;SHT31;67756;51.982;5.648;2023-08-12T10:36:06;22.8;75.2
78463;SHT31;67756;51.982;5.648;2023-08-12T10:38:35;22.9;73.3
78463;SHT31;67756;51.982;5.648;2023-08-12T10:41:20;23.0;72.8
78463;SHT31;67756;51.982;5.648;2023-08-12T10:43:59;23.0;73.4
78463;SHT31;67756;51.982;5.648;2023-08-12T10:46:33;23.1;70.8
78463;SHT31;67756;51.982;5.648;2023-08-12T10:49:05;23.2;70.9
78463;SHT31;67756;51.982;5.648;2023-08-12T10:51:41;23.2;70.5
78463;SHT31;67756;51.982;5.648;2023-08-12T10:54:13;23.4;69.5
78463;SHT31;67756;51.982;5.648;2023-08-12T10:57:08;23.5;67.8
78463;SHT31;67756;51.982;5.648;2023-08-12T10:59:51;23.6;68.6
78463;SHT31;67756;51.982;5.648;2023-08-12T11:02:25;23.8;68.3
78463;SHT31;67756;51.982;5.648;2023-08-12T11:04:55;24.0;67.4
78463;SHT31;67756;51.982;5.648;2023-08-12T11:07:33;24.1;65.7
78463;SHT31;67756;51.982;5.648;2023-08-12T11:10:10;24.2;64.7
78463;SHT31;67756;51.982;5.648;2023-08-12T11:12:41;24.3;65.7
78463;SHT31;67756;51.982;5.648;2023-08-12T11:15:10;24.4;63.8
78463;SHT31;67756;51.982;5.648;2023-08-12T11:17:42;24.5;64.9
78463;SHT31;67756;51.982;5.648;2023-08-12T11:20:14;24.6;63.9
78463;SHT31;67756;51.982;5.648;2023-08-12T11:22:44;24.8;63.2
78463;SHT31;67756;51.982;5.648;2023-08-12T11:25:13;25.1;60.2
78463;SHT31;67756;51.982;5.648;2023-08-12T11:27:44;25.4;58.5
78463;SHT31;67756;51.982;5.648;2023-08-12T11:30:14;25.8;57.7
78463;SHT31;67756;51.982;5.648;2023-08-12T11:32:46;26.1;56.3
78463;SHT31;67756;51.982;5.648;2023-08-12T11:35:17;26.7;54.8
78463;SHT31;67756;51.982;5.648;2023-08-12T11:37:49;26.9;52.7
78463;SHT31;67756;51.982;5.648;2023-08-12T11:40:19;27.0;53.9
78463;SHT31;67756;51.982;5.648;2023-08-12T11:42:50;27.0;53.7
78463;SHT31;67756;51.982;5.648;2023-08-12T11:45:20;27.0;54.1
78463;SHT31;67756;51.982;5.648;2023-08-12T11:47:49;27.0;52.7
78463;SHT31;67756;51.982;5.648;2023-08-12T11:50:22;27.1;54.0
78463;SHT31;67756;51.982;5.648;2023-08-12T11:52:52;27.1;53.5
78463;SHT31;67756;51.982;5.648;2023-08-12T11:55:21;27.1;54.3
78463;SHT31;67756;51.982;5.648;2023-08-12T11:57:51;27.2;51.8
78463;SHT31;67756;51.982;5.648;2023-08-12T12:00:20;27.3;52.0
78463;SHT31;67756;51.982;5.648;2023-08-12T12:02:53;27.3;50.9
78463;SHT31;67756;51.982;5.648;2023-08-12T12:05:23;27.3;50.1
78463;SHT31;67756;51.982;5.648;2023-08-12T12:07:56;27.3;51.7
78463;SHT31;67756;51.982;5.648;2023-08-12T12:10:29;27.5;52.6
78463;SHT31;67756;51.982;5.648;2023-08-12T12:12:59;27.7;52.1
78463;SHT31;67756;51.982;5.648;2023-08-12T12:15:28;28.1;50.5
78463;SHT31;67756;51.982;5.648;2023-08-12T12:17:57;28.4;49.3
78463;SHT31;67756;51.982;5.648;2023-08-12T12:20:26;28.7;48.2
78463;SHT31;67756;51.982;5.648;2023-08-12T12:22:55;29.1;48.1
78463;SHT31;67756;51.982;5.648;2023-08-12T12:25:24;29.5;47.2
78463;SHT31;67756;51.982;5.648;2023-08-12T12:27:52;29.8;45.2
78463;SHT31;67756;51.982;5.648;2023-08-12T12:30:22;30.1;45.0
78463;SHT31;67756;51.982;5.648;2023-08-12T12:32:52;30.4;44.3
78463;SHT31;67756;51.982;5.648;2023-08-12T12:35:22;30.7;42.7
78463;SHT31;67756;51.982;5.648;2023-08-12T12:37:53;30.8;43.3
78463;SHT31;67756;51.982;5.648;2023-08-12T12:40:22;30.9;40.7
78463;SHT31;67756;51.982;5.648;2023-08-12T12:42:50;31.0;41.0
78463;SHT31;67756;51.982;5.648;2023-08-12T12:45:19;31.0;40.0
78463;SHT31;67756;51.982;5.648;2023-08-12T12:47:47;30.8;41.7
78463;SHT31;67756;51.982;5.648;2023-08-12T12:50:18;30.7;41.1
78463;SHT31;67756;51.982;5.648;2023-08-12T12:52:47;30.6;42.2
78463;SHT31;67756;51.982;5.648;2023-08-12T12:55:15;30.5;41.4
78463;SHT31;67756;51.982;5.648;2023-08-12T12:57:44;30.4;42.5
78463;SHT31;67756;51.982;5.648;2023-08-12T13:00:14;30.3;42.5
78463;SHT31;67756;51.982;5.648;2023-08-12T13:02:45;30.3;43.3
78463;SHT31;67756;51.982;5.648;2023-08-12T13:05:13;30.3;44.1
78463;SHT31;67756;51.982;5.648;2023-08-12T13:07:42;30.4;44.5
78463;SHT31;67756;51.982;5.648;2023-08-12T13:10:13;30.6;43.3
78463;SHT31;67756;51.982;5.648;2023-08-12T13:12:43;30.8;41.5
78463;SHT31;67756;51.982;5.648;2023-08-12T13:15:14;31.0;41.5
78463;SHT31;67756;51.982;5.648;2023-08-12T13:17:44;31.1;41.2
78463;SHT31;67756;51.982;5.648;2023-08-12T13:20:18;31.3;40.3
78463;SHT31;67756;51.982;5.648;2023-08-12T13:22:47;31.3;40.8
78463;SHT31;67756;51.982;5.648;2023-08-12T13:25:17;31.4;40.9
78463;SHT31;67756;51.982;5.648;2023-08-12T13:27:48;31.6;40.2
78463;SHT31;67756;51.982;5.648;2023-08-12T13:30:16;31.8;39.0
78463;SHT31;67756;51.982;5.648;2023-08-12T13:32:45;32.0;40.5
78463;SHT31;67756;51.982;5.648;2023-08-12T13:35:13;32.2;40.3
78463;SHT31;67756;51.982;5.648;2023-08-12T13:37:42;32.5;37.9
78463;SHT31;67756;51.982;5.648;2023-08-12T13:40:11;32.8;36.0
78463;SHT31;67756;51.982;5.648;2023-08-12T13:42:42;33.1;34.1
78463;SHT31;67756;51.982;5.648;2023-08-12T13:45:13;33.2;34.7
78463;SHT31;67756;51.982;5.648;2023-08-12T13:47:41;33.3;33.8
78463;SHT31;67756;51.982;5.648;2023-08-12T13:50:11;33.5;34.2
78463;SHT31;67756;51.982;5.648;2023-08-12T13:52:39;33.7;35.3
78463;SHT31;67756;51.982;5.648;2023-08-12T13:55:09;33.9;34.7
78463;SHT31;67756;51.982;5.648;2023-08-12T13:57:37;34.1;33.7
78463;SHT31;67756;51.982;5.648;2023-08-12T14:00:06;34.2;34.1
78463;SHT31;67756;51.982;5.648;2023-08-12T14:02:36;34.3;33.9
78463;SHT31;67756;51.982;5.648;2023-08-12T14:05:05;34.4;34.5
78463;SHT31;67756;51.982;5.648;2023-08-12T14:07:34;34.6;33.1
78463;SHT31;67756;51.982;5.648;2023-08-12T14:10:05;34.7;32.9
78463;SHT31;67756;51.982;5.648;2023-08-12T14:12:34;34.8;31.5
78463;SHT31;67756;51.982;5.648;2023-08-12T14:15:03;34.9;32.0
78463;SHT31;67756;51.982;5.648;2023-08-12T14:17:32;35.1;31.2
78463;SHT31;67756;51.982;5.648;2023-08-12T14:20:01;35.2;31.7
78463;SHT31;67756;51.982;5.648;2023-08-12T14:22:34;35.3;30.4
78463;SHT31;67756;51.982;5.648;2023-08-12T14:25:05;35.4;30.7
78463;SHT31;67756;51.982;5.648;2023-08-12T14:27:36;35.5;29.7
78463;SHT31;67756;51.982;5.648;2023-08-12T14:30:06;35.5;29.4
78463;SHT31;67756;51.982;5.648;2023-08-12T14:32:35;35.6;30.1
78463;SHT31;67756;51.982;5.648;2023-08-12T14:35:04;35.6;30.6
78463;SHT31;67756;51.982;5.648;2023-08-12T14:37:33;35.7;30.1
78463;SHT31;67756;51.982;5.648;2023-08-12T14:40:02;35.7;31.3
78463;SHT31;67756;51.982;5.648;2023-08-12T14:42:31;35.8;30.0
78463;SHT31;67756;51.982;5.648;2023-08-12T14:44:59;35.8;30.5
78463;SHT31;67756;51.982;5.648;2023-08-12T14:47:28;35.8;30.5
78463;SHT31;67756;51.982;5.648;2023-08-12T14:49:57;35.8;30.0
78463;SHT31;67756;51.982;5.648;2023-08-12T14:52:25;35.8;30.0
78463;SHT31;67756;51.982;5.648;2023-08-12T14:54:54;35.7;30.4
78463;SHT31;67756;51.982;5.648;2023-08-12T14:57:23;35.8;29.5
78463;SHT31;67756;51.982;5.648;2023-08-12T14:59:52;35.8;29.1
78463;SHT31;67756;51.982;5.648;2023-08-12T15:02:22;35.8;29.2
78463;SHT31;67756;51.982;5.648;2023-08-12T15:04:50;35.8;29.8
78463;SHT31;67756;51.982;5.648;2023-08-12T15:07:19;35.8;29.7
78463;SHT31;67756;51.982;5.648;2023-08-12T15:09:48;35.8;30.7
78463;SHT31;67756;51.982;5.648;2023-08-12T15:12:18;35.8;29.9
78463;SHT31;67756;51.982;5.648;2023-08-12T15:14:47;35.8;30.6
78463;SHT31;67756;51.982;5.648;2023-08-12T15:17:15;35.8;30.1
78463;SHT31;67756;51.982;5.648;2023-08-12T15:19:44;35.8;29.6
78463;SHT31;67756;51.982;5.648;2023-08-12T15:22:14;35.8;29.5
78463;SHT31;67756;51.982;5.648;2023-08-12T15:24:43;35.8;29.3
78463;SHT31;67756;51.982;5.648;2023-08-12T15:27:12;35.7;30.0
78463;SHT31;67756;51.982;5.648;2023-08-12T15:29:40;35.7;30.1
78463;SHT31;67756;51.982;5.648;2023-08-12T15:32:09;35.6;31.0
78463;SHT31;67756;51.982;5.648;2023-08-12T15:34:37;35.6;30.1
78463;SHT31;67756;51.982;5.648;2023-08-12T15:37:06;35.6;29.5
78463;SHT31;67756;51.982;5.648;2023-08-12T15:39:35;35.5;30.2
78463;SHT31;67756;51.982;5.648;2023-08-12T15:42:06;35.1;30.9
78463;SHT31;67756;51.982;5.648;2023-08-12T15:44:37;34.6;32.1
78463;SHT31;67756;51.982;5.648;2023-08-12T15:47:07;34.3;32.0
78463;SHT31;67756;51.982;5.648;2023-08-12T15:49:35;34.0;31.8
78463;SHT31;67756;51.982;5.648;2023-08-12T15:52:04;33.7;32.0
78463;SHT31;67756;51.982;5.648;2023-08-12T15:54:32;33.0;33.9
78463;SHT31;67756;51.982;5.648;2023-08-12T15:57:01;32.5;34.6
78463;SHT31;67756;51.982;5.648;2023-08-12T15:59:29;32.1;35.8
78463;SHT31;67756;51.982;5.648;2023-08-12T16:01:58;31.9;36.2
78463;SHT31;67756;51.982;5.648;2023-08-12T16:04:26;31.7;36.9
78463;SHT31;67756;51.982;5.648;2023-08-12T16:06:55;31.5;37.0
78463;SHT31;67756;51.982;5.648;2023-08-12T16:09:24;31.3;38.0
78463;SHT31;67756;51.982;5.648;2023-08-12T16:11:52;31.2;38.6
78463;SHT31;67756;51.982;5.648;2023-08-12T16:14:22;31.1;38.6
78463;SHT31;67756;51.982;5.648;2023-08-12T16:16:51;31.0;39.0